createdAt,value
2023-03-26T00:03:47.362Z,10.05
2023-03-26T00:08:50.253Z,10.07
2023-03-26T00:13:57.011Z,10.07
2023-03-26T00:19:36.397Z,10.27
2023-03-26T00:24:57.038Z,10.09
2023-03-26T00:30:00.861Z,10.05
2023-03-26T00:35:04.016Z,10.11
2023-03-26T00:40:07.967Z,10.07
2023-03-26T00:45:10.503Z,10.05
2023-03-26T00:55:35.847Z,10.06
2023-03-26T01:00:46.850Z,10.12
2023-03-26T01:05:53.285Z,9.99
2023-03-26T01:11:03.118Z,9.98
2023-03-26T01:16:09.972Z,9.98
2023-03-26T01:21:31.783Z,10.08
2023-03-26T01:26:57.399Z,10.09
2023-03-26T01:32:33.464Z,10.01
2023-03-26T01:38:00.439Z,9.92
2023-03-26T01:43:20.617Z,9.86
2023-03-26T01:48:47.408Z,9.75
2023-03-26T01:53:49.696Z,9.59
2023-03-26T01:59:09.894Z,9.73
2023-03-26T02:04:17.655Z,9.58
2023-03-26T02:09:25.048Z,9.63
2023-03-26T02:14:30.048Z,9.64
2023-03-26T02:20:14.323Z,9.79
2023-03-26T02:25:19.788Z,9.62
2023-03-26T02:30:25.894Z,9.61
2023-03-26T02:35:31.272Z,9.55
2023-03-26T02:40:36.040Z,9.53
2023-03-26T02:46:15.635Z,9.72
2023-03-26T02:51:35.072Z,9.49
2023-03-26T02:56:51.597Z,9.46
2023-03-26T03:02:16.750Z,9.40
2023-03-26T03:07:20.437Z,9.41
2023-03-26T03:12:22.577Z,9.36
2023-03-26T03:17:43.796Z,9.53
2023-03-26T03:23:04.274Z,9.32
2023-03-26T03:28:07.701Z,9.29
2023-03-26T03:33:09.829Z,9.28
2023-03-26T03:38:13.017Z,9.27
2023-03-26T03:43:22.545Z,9.23
2023-03-26T03:48:38.478Z,9.17
2023-03-26T03:53:41.998Z,9.16
2023-03-26T03:58:46.438Z,9.12
2023-03-26T04:03:54.944Z,9.15
2023-03-26T04:09:01.150Z,9.14
2023-03-26T04:14:04.043Z,9.20
2023-03-26T04:25:06.244Z,9.25
2023-03-26T04:30:20.719Z,9.31
2023-03-26T04:35:41.884Z,9.25
2023-03-26T04:40:48.947Z,9.25
2023-03-26T04:46:18.414Z,9.49
2023-03-26T04:51:35.156Z,9.45
2023-03-26T04:56:44.800Z,9.49
2023-03-26T05:02:14.165Z,9.36
2023-03-26T05:07:24.509Z,9.42
2023-03-26T05:12:31.707Z,9.41
2023-03-26T05:18:37.677Z,9.65
2023-03-26T05:29:18.599Z,9.53
2023-03-26T05:34:26.486Z,9.49
2023-03-26T05:39:29.953Z,9.54
2023-03-26T05:44:32.001Z,9.65
2023-03-26T05:49:56.884Z,9.74
2023-03-26T05:54:59.629Z,9.81
2023-03-26T06:00:38.489Z,9.88
2023-03-26T06:05:43.203Z,9.93
2023-03-26T06:11:01.335Z,10.05
2023-03-26T06:16:08.646Z,9.92
2023-03-26T06:21:13.467Z,9.74
2023-03-26T06:32:19.014Z,9.70
2023-03-26T06:37:27.451Z,9.83
2023-03-26T06:43:07.107Z,9.76
2023-03-26T06:48:09.953Z,9.56
2023-03-26T06:53:23.774Z,9.44
2023-03-26T06:59:10.181Z,9.37
2023-03-26T07:04:31.258Z,9.34
2023-03-26T07:09:53.722Z,9.39
2023-03-26T07:15:18.910Z,9.57
2023-03-26T07:21:18.882Z,9.78
2023-03-26T07:26:45.621Z,10.01
2023-03-26T07:32:25.562Z,10.42
2023-03-26T07:37:53.559Z,10.63
2023-03-26T07:43:54.317Z,10.76
2023-03-26T07:49:27.409Z,10.62
2023-03-26T07:54:51.506Z,10.62
2023-03-26T08:00:22.302Z,10.77
2023-03-26T08:05:35.136Z,10.66
2023-03-26T08:11:40.511Z,10.88
2023-03-26T08:17:01.668Z,10.93
2023-03-26T08:22:41.935Z,10.98
2023-03-26T08:28:02.978Z,10.95
2023-03-26T08:33:27.500Z,10.88
2023-03-26T08:38:29.561Z,10.78
2023-03-26T08:43:40.530Z,11.19
2023-03-26T08:49:10.042Z,10.65
2023-03-26T08:54:33.812Z,10.39
2023-03-26T09:00:02.686Z,10.37
2023-03-26T09:05:36.782Z,10.32
2023-03-26T09:11:00.453Z,10.17
2023-03-26T09:16:05.497Z,10.06
2023-03-26T09:21:26.356Z,10.18
2023-03-26T09:32:47.852Z,9.95
2023-03-26T09:38:00.716Z,9.87
2023-03-26T09:43:11.263Z,9.62
2023-03-26T09:48:53.701Z,9.58
2023-03-26T09:54:34.055Z,9.58
2023-03-26T09:59:54.715Z,9.39
2023-03-26T10:04:59.650Z,9.79
2023-03-26T10:10:01.740Z,9.52
2023-03-26T10:27:19.222Z,9.74
2023-03-26T10:32:24.227Z,9.61
2023-03-26T10:37:51.666Z,9.91
2023-03-26T10:43:24.523Z,9.93
2023-03-26T10:49:01.193Z,9.96
2023-03-26T10:54:51.692Z,9.94
2023-03-26T11:00:29.080Z,10.03
2023-03-26T11:05:59.161Z,10.07
2023-03-26T11:11:29.503Z,10.18
2023-03-26T11:17:40.780Z,10.19
2023-03-26T11:23:08.677Z,10.00
2023-03-26T11:28:26.518Z,9.74
2023-03-26T11:33:37.382Z,9.76
2023-03-26T11:38:50.783Z,9.81
2023-03-26T11:44:07.275Z,9.92
2023-03-26T11:49:13.299Z,9.95
2023-03-26T11:54:16.504Z,9.84
2023-03-26T11:59:27.414Z,9.89
2023-03-26T12:04:44.085Z,10.04
2023-03-26T12:10:32.702Z,10.09
2023-03-26T12:15:43.300Z,10.02
2023-03-26T12:20:45.480Z,9.89
2023-03-26T12:26:11.391Z,10.10
2023-03-26T12:31:18.349Z,9.96
2023-03-26T12:36:33.422Z,10.07
2023-03-26T12:44:42.674Z,9.98
2023-03-26T12:47:58.515Z,10.07
2023-03-26T12:53:08.460Z,10.07
2023-03-26T12:58:21.167Z,9.96
2023-03-26T13:03:44.205Z,10.00
2023-03-26T13:09:11.224Z,9.94
2023-03-26T13:14:27.207Z,9.91
2023-03-26T13:19:39.837Z,9.91
2023-03-26T13:25:23.761Z,9.97
2023-03-26T13:30:46.341Z,9.81
2023-03-26T13:36:21.692Z,9.98
2023-03-26T13:41:42.813Z,9.81
2023-03-26T13:47:03.613Z,9.94
2023-03-26T13:52:36.374Z,9.98
2023-03-26T13:57:53.565Z,9.96
2023-03-26T14:03:09.965Z,9.89
2023-03-26T14:08:36.862Z,9.91
2023-03-26T14:13:46.196Z,9.77
2023-03-26T14:19:23.684Z,9.83
2023-03-26T14:24:51.559Z,9.79
2023-03-26T14:30:31.089Z,9.80
2023-03-26T14:35:48.432Z,9.72
2023-03-26T14:40:58.833Z,9.66
2023-03-26T14:46:27.912Z,9.76
2023-03-26T14:51:48.455Z,9.76
2023-03-26T14:57:27.427Z,9.74
2023-03-26T15:03:03.337Z,9.74
2023-03-26T15:08:14.489Z,9.67
2023-03-26T15:13:28.355Z,9.60
2023-03-26T15:18:42.083Z,9.70
2023-03-26T15:24:12.115Z,9.72
2023-03-26T15:29:26.071Z,9.66
2023-03-26T15:35:09.750Z,9.77
2023-03-26T15:40:29.970Z,9.67
2023-03-26T15:45:54.096Z,9.70
2023-03-26T15:51:28.681Z,9.73
2023-03-26T15:56:42.174Z,9.68
2023-03-26T16:02:16.326Z,9.70
2023-03-26T16:07:34.333Z,9.67
2023-03-26T16:12:53.804Z,9.65
2023-03-26T16:18:12.318Z,9.67
2023-03-26T16:23:47.754Z,9.71
2023-03-26T16:28:53.541Z,9.64
2023-03-26T16:34:33.999Z,9.72
2023-03-26T16:39:39.355Z,9.68
2023-03-26T16:44:57.500Z,9.77
2023-03-26T16:50:28.361Z,9.85
2023-03-26T16:55:52.919Z,9.83
2023-03-26T17:01:08.598Z,9.79
2023-03-26T17:06:30.775Z,9.84
2023-03-26T17:11:52.032Z,9.85
2023-03-26T17:17:09.283Z,9.76
2023-03-26T17:22:24.893Z,9.78
2023-03-26T17:27:43.433Z,9.79
2023-03-26T17:33:05.456Z,9.86
2023-03-26T17:38:22.672Z,9.83
2023-03-26T17:43:40.502Z,9.82
2023-03-26T17:48:47.368Z,9.72
2023-03-26T17:53:53.078Z,9.62
2023-03-26T17:59:11.288Z,9.65
2023-03-26T18:04:21.595Z,9.71
2023-03-26T18:10:01.340Z,9.78
2023-03-26T18:15:29.966Z,9.72
2023-03-26T18:20:32.632Z,9.55
2023-03-26T18:25:35.779Z,9.53
2023-03-26T18:30:48.853Z,9.63
2023-03-26T18:35:55.517Z,9.51
2023-03-26T18:40:58.766Z,9.46
2023-03-26T18:46:01.467Z,9.40
2023-03-26T18:51:06.125Z,9.42
2023-03-26T18:56:30.540Z,9.54
2023-03-26T19:01:36.702Z,9.41
2023-03-26T19:06:42.041Z,9.39
2023-03-26T19:11:45.467Z,9.33
2023-03-26T19:16:56.505Z,9.43
2023-03-26T19:21:59.724Z,9.21
2023-03-26T19:27:02.726Z,9.27
2023-03-26T19:32:15.368Z,9.32
2023-03-26T19:37:26.499Z,9.30
2023-03-26T19:42:43.002Z,9.24
2023-03-26T19:47:50.074Z,9.12
2023-03-26T19:53:15.352Z,9.18
2023-03-26T19:58:19.765Z,8.96
2023-03-26T20:03:29.149Z,8.92
2023-03-26T20:08:31.408Z,8.82
2023-03-26T20:13:33.472Z,8.86
2023-03-26T20:18:35.649Z,8.81
2023-03-26T20:23:39.160Z,8.80
2023-03-26T20:28:48.281Z,8.86
2023-03-26T20:33:52.293Z,8.82
2023-03-26T20:38:54.370Z,8.74
2023-03-26T20:43:57.005Z,8.69
2023-03-26T20:49:00.037Z,8.63
2023-03-26T20:54:02.435Z,8.60
2023-03-26T20:59:10.879Z,8.60
2023-03-26T21:04:14.334Z,8.63
2023-03-26T21:09:23.698Z,8.66
2023-03-26T21:14:31.919Z,8.63
2023-03-26T21:19:34.259Z,8.46
2023-03-26T21:24:36.305Z,8.58
2023-03-26T21:29:38.722Z,8.53
2023-03-26T21:34:47.888Z,8.51
2023-03-26T21:39:59.881Z,8.45
2023-03-26T21:45:02.223Z,8.34
2023-03-26T21:50:07.327Z,8.33
2023-03-26T21:55:11.574Z,8.35
2023-03-26T22:00:23.676Z,8.42
2023-03-26T22:05:53.141Z,8.57
2023-03-26T22:10:55.879Z,8.34
2023-03-26T22:15:59.122Z,8.32
2023-03-26T22:21:01.304Z,8.30
2023-03-26T22:26:05.177Z,8.26
2023-03-26T22:31:09.045Z,8.17
2023-03-26T22:36:23.485Z,8.13
2023-03-26T22:41:26.365Z,8.12
2023-03-26T22:46:28.966Z,8.11
2023-03-26T22:51:31.127Z,8.09
2023-03-26T22:56:33.251Z,7.98
2023-03-26T23:01:36.301Z,7.90
2023-03-26T23:06:38.478Z,7.87
2023-03-26T23:11:40.601Z,7.89
2023-03-26T23:16:45.802Z,7.87
2023-03-26T23:21:47.831Z,7.80
2023-03-26T23:26:51.164Z,7.73
2023-03-26T23:31:54.707Z,7.66
2023-03-26T23:36:58.086Z,7.59
2023-03-26T23:42:00.130Z,7.59
2023-03-26T23:47:02.168Z,7.66
2023-03-26T23:52:05.093Z,7.77
2023-03-26T23:57:07.723Z,7.79
